Latest Coastal Weather Observations for Hervey Bay

IDQ60701

Issued at 5:43 pm EST Wednesday 8 February 2023 (issued every 10 minutes, with the page automatically refreshed every 10 minutes)

About coastal observations | Map of coastal stations | Coastal observations for QLD | Marine services | Other Formats
Station Details ID: 040405 Name: HERVEY BAY AIRPORT Lat: -25.32 Lon: 152.88 Height: 12.98 m
Data from the previous 72 hours. | See also: Recent months at Hervey Bay
Date/Time
EST
Wind Sea
Height
m
Swell Vis
km
Cloud Weather Temp
°C
Press
MSL
hPa
Rain since
9am
mm
Dir  Spd
kts
Gust
kts
Height
m
Period
s
Dir
08/05:30pm SE 11 18 - - - - 10 Clear - 26.8 1009.2 0.0
08/05:00pm SE 13 18 - - - - 10 - - 27.2 1009.2 0.0
08/04:30pm SE 12 19 - - - - 10 Partly cloudy - 27.7 1009.1 0.0
08/04:00pm SE 13 20 - - - - 10 - - 26.9 1009.0 0.0
08/03:30pm SE 13 21 - - - - 10 Partly cloudy - 27.7 1009.1 0.0
08/03:00pm SE 13 23 - - - - 10 - - 28.3 1009.1 0.0
08/02:30pm SE 13 21 - - - - 10 Partly cloudy - 28.2 1009.3 0.0
08/02:00pm SE 13 21 - - - - 10 Partly cloudy - 29.0 1009.5 0.0
08/01:30pm SE 13 19 - - - - 10 - - 29.0 1009.6 0.0
08/01:00pm ESE 13 23 - - - - 10 Partly cloudy - 28.7 1010.0 0.0
08/12:30pm SE 13 19 - - - - 10 Partly cloudy - 28.4 1010.4 0.0
08/12:00pm SE 13 20 - - - - 10 Cloudy - 28.8 1010.4 0.0
08/11:36am ESE 15 25 - - - - 10 Partly cloudy - 28.3 1010.4 0.0
08/11:30am ESE 15 23 - - - - 10 Partly cloudy - 28.9 1010.4 0.0
08/11:00am SE 13 21 - - - - 10 Partly cloudy - 29.5 1010.7 0.0
08/10:30am ESE 13 19 - - - - 10 Partly cloudy - 28.7 1011.0 0.0
08/10:00am SE 13 20 - - - - 10 Partly cloudy - 28.3 1011.1 0.0
08/09:30am ESE 12 17 - - - - 10 Partly cloudy - 27.7 1011.1 0.0
08/09:00am SE 13 21 - - - - 10 Mostly clear - 27.8 1011.1 0.0
08/08:30am ESE 12 19 - - - - 10 Partly cloudy - 27.5 1011.2 0.0
08/08:00am SE 9 14 - - - - 10 Partly cloudy - 26.3 1011.1 0.0
08/07:30am ESE 12 19 - - - - 10 - - 26.7 1011.0 0.0
08/07:00am SE 10 17 - - - - 10 Partly cloudy - 25.5 1010.8 0.0
08/06:30am SE 8 14 - - - - 10 - - 25.0 1010.5 0.0
08/06:00am SE 8 12 - - - - 10 Mostly cloudy - 24.6 1010.3 0.0
08/05:30am ESE 8 13 - - - - 10 - - 24.7 1010.0 0.0
08/05:00am ESE 8 12 - - - - 10 Partly cloudy - 24.7 1009.8 0.0
08/04:30am SE 7 11 - - - - 10 Partly cloudy - 24.3 1009.6 0.0
08/04:00am SE 7 11 - - - - 10 Partly cloudy - 24.7 1009.6 0.0
08/03:30am SE 8 12 - - - - 10 Partly cloudy - 24.9 1009.6 0.0
08/03:00am ESE 9 13 - - - - 10 Cloudy - 25.0 1009.7 0.0
08/02:30am ESE 8 13 - - - - 10 Partly cloudy - 25.0 1009.8 0.0
08/02:00am ESE 8 12 - - - - 10 Partly cloudy - 24.9 1009.9 0.0
08/01:30am SE 8 13 - - - - 10 Partly cloudy - 25.1 1010.1 0.0
08/01:00am SE 7 13 - - - - 10 Partly cloudy - 24.7 1010.5 0.0
08/12:30am SSE 5 7 - - - - 10 Partly cloudy - 24.2 1010.9 0.0
08/12:00am SSE 6 8 - - - - 10 Mostly clear - 24.3 1011.1 0.0
 
Date/Time
EST
Wind Sea
Height
m
Swell Vis
km
Cloud Weather Temp
°C
Press
MSL
hPa
Rain since
9am
mm
Dir  Spd
kts
Gust
kts
Height
m
Period
s
Dir
07/11:30pm SE 5 8 - - - - 10 - - 24.6 1011.6 0.0
07/11:00pm SE 6 8 - - - - 10 Partly cloudy - 24.8 1011.9 0.0
07/10:30pm SE 7 10 - - - - 10 Partly cloudy - 24.9 1012.0 0.0
07/10:00pm SE 8 13 - - - - 10 - - 25.1 1011.9 0.0
07/09:30pm SE 6 9 - - - - 10 - - 24.8 1012.1 0.0
07/09:00pm SE 9 13 - - - - 10 Cloudy - 25.3 1012.2 0.0
07/08:30pm SSE 7 13 - - - - 10 Partly cloudy - 25.1 1012.2 0.0
07/08:00pm SSE 8 12 - - - - 10 Partly cloudy - 25.0 1012.1 0.0
07/07:30pm S 8 12 - - - - 10 Partly cloudy - 24.9 1012.1 0.0
07/07:00pm S 10 15 - - - - 10 Partly cloudy - 25.1 1011.8 0.0
07/06:30pm SSE 9 13 - - - - 10 Partly cloudy - 25.2 1011.3 0.0
07/06:00pm SSE 9 13 - - - - 10 Cloudy - 25.5 1010.9 0.0
07/05:30pm SSE 11 20 - - - - 10 Partly cloudy - 25.7 1010.6 0.0
07/05:00pm SSE 12 19 - - - - 10 Partly cloudy - 26.6 1010.4 0.0
07/04:30pm SSE 12 18 - - - - 10 - - 27.3 1010.5 0.0
07/04:00pm SE 11 18 - - - - 10 Partly cloudy - 27.0 1010.6 0.0
07/03:30pm SE 11 16 - - - - 10 Partly cloudy - 27.0 1010.8 0.0
07/03:00pm SSE 12 19 - - - - 10 Cloudy - 27.3 1011.0 0.0
07/02:30pm SE 13 19 - - - - 10 Partly cloudy - 28.0 1011.0 0.0
07/02:00pm SE 13 22 - - - - 10 Partly cloudy - 28.2 1011.2 0.0
07/01:30pm SE 14 20 - - - - 10 Partly cloudy - 28.6 1011.3 0.0
07/01:00pm SE 13 23 - - - - 10 Partly cloudy - 28.7 1011.5 0.0
07/12:30pm SE 11 19 - - - - 10 Partly cloudy - 28.7 1011.7 0.0
07/12:00pm SE 13 20 - - - - 10 Partly cloudy - 28.6 1011.8 0.0
07/11:30am SSE 12 19 - - - - 10 Partly cloudy - 28.2 1012.0 0.0
07/11:00am SSE 13 20 - - - - 10 Partly cloudy - 28.1 1012.5 0.0
07/10:30am SE 12 19 - - - - 10 Partly cloudy - 28.3 1012.6 0.0
07/10:00am SE 12 20 - - - - 10 Partly cloudy - 28.2 1012.7 0.0
07/09:30am SE 10 17 - - - - 10 Partly cloudy - 27.9 1012.8 0.0
07/09:00am SE 12 20 - - - - 10 Cloudy - 26.9 1012.7 0.2
07/08:30am SE 12 18 - - - - 10 Partly cloudy - 26.6 1012.6 0.2
07/08:00am SE 10 18 - - - - 10 Partly cloudy - 27.0 1012.4 0.2
07/07:30am SE 9 16 - - - - 10 Partly cloudy - 25.9 1012.1 0.2
07/07:00am SSE 8 13 - - - - 10 - - 25.5 1012.1 0.2
07/06:30am SE 8 13 - - - - 10 Partly cloudy - 25.4 1011.7 0.2
07/06:00am SSE 5 8 - - - - 10 Cloudy - 24.1 1011.5 0.2
07/05:30am SSE 6 10 - - - - 10 - - 23.6 1011.3 0.2
07/05:00am SSE 6 8 - - - - 10 - - 23.6 1011.3 0.2
07/04:30am SSE 7 10 - - - - 10 Partly cloudy - 24.1 1011.3 0.2
07/04:00am SSE 6 9 - - - - 10 Partly cloudy - 24.1 1011.3 0.2
07/03:30am SSE 5 8 - - - - 10 - - 24.1 1011.7 0.2
07/03:00am SSE 7 11 - - - - 10 Cloudy - 24.4 1011.6 0.2
07/02:30am SSE 6 10 - - - - 10 - - 24.7 1011.5 0.2
07/02:00am SSE 7 11 - - - - 10 - - 24.5 1011.6 0.2
07/01:30am SSE 6 9 - - - - 10 - - 24.6 1011.9 0.2
07/01:00am SSE 6 11 - - - - 10 - - 24.7 1012.0 0.2
07/12:30am SSE 5 9 - - - - 10 - - 24.3 1012.4 0.2
07/12:00am SSE 6 9 - - - - 10 Mostly clear - 24.5 1012.7 0.2
 
Date/Time
EST
Wind Sea
Height
m
Swell Vis
km
Cloud Weather Temp
°C
Press
MSL
hPa
Rain since
9am
mm
Dir  Spd
kts
Gust
kts
Height
m
Period
s
Dir
06/11:30pm SSE 6 9 - - - - 10 - - 24.6 1012.9 0.2
06/11:00pm SSE 7 10 - - - - 10 - - 24.8 1013.0 0.2
06/10:30pm SE 6 11 - - - - 10 - - 24.9 1013.4 0.2
06/10:00pm SSE 7 12 - - - - 10 - - 25.1 1013.6 0.2
06/09:30pm SSE 6 10 - - - - 10 - - 25.0 1013.6 0.2
06/09:00pm SSE 7 11 - - - - 10 - - 25.1 1013.7 0.2
06/08:30pm SSE 6 9 - - - - 10 Partly cloudy - 25.0 1013.6 0.2
06/08:00pm SSE 7 13 - - - - 10 Partly cloudy - 25.1 1013.4 0.2
06/07:30pm SE 9 14 - - - - 10 Partly cloudy - 25.4 1013.1 0.2
06/07:00pm SE 9 16 - - - - 10 Partly cloudy - 25.6 1013.1 0.2
06/06:30pm SSE 9 15 - - - - 10 - - 25.8 1013.0 0.2
06/06:00pm SE 10 17 - - - - 10 Partly cloudy - 26.4 1012.7 0.2
06/05:30pm SE 12 19 - - - - 10 Cloudy - 26.6 1012.5 0.2
06/05:00pm SSE 12 19 - - - - 10 Partly cloudy - 27.4 1012.4 0.2
06/04:30pm SE 12 19 - - - - 10 Partly cloudy - 27.3 1012.4 0.2
06/04:00pm SSE 9 16 - - - - 10 Partly cloudy - 27.2 1012.4 0.2
06/03:30pm SSE 13 19 - - - - 10 Cloudy - 26.7 1012.6 0.2
06/03:00pm SSE 13 20 - - - - 10 Cloudy - 26.4 1012.7 0.2
06/02:30pm SSE 11 17 - - - - 10 Partly cloudy - 25.8 1012.8 0.2
06/02:00pm SSE 12 18 - - - - 10 Partly cloudy - 26.3 1012.8 0.2
06/01:41pm SSE 12 20 - - - - 10 Partly cloudy - 25.9 1013.0 0.2
06/01:30pm SSE 11 19 - - - - 10 Partly cloudy - 26.0 1013.1 0.2
06/01:00pm SSE 14 22 - - - - 10 Partly cloudy - 26.3 1013.1 0.2
06/12:30pm SSE 13 19 - - - - 10 Partly cloudy - 26.4 1013.3 0.2
06/12:08pm SSE 12 17 - - - - 10 Partly cloudy - 26.5 1013.5 0.2
06/12:00pm SSE 12 18 - - - - 10 Cloudy - 27.0 1013.5 0.2
06/11:30am SSE 13 23 - - - - 10 Partly cloudy - 26.6 1014.0 0.2
06/11:03am SSE 12 21 - - - - 10 Partly cloudy - 27.1 1014.2 0.2
06/11:00am S 13 21 - - - - 10 Partly cloudy - 27.0 1014.2 0.2
06/10:30am SSE 11 17 - - - - 10 Partly cloudy - 26.8 1014.3 0.0
06/10:13am SSE 12 19 - - - - 10 Partly cloudy - 26.9 1014.3 0.0
06/10:03am SSE 12 19 - - - - 10 Partly cloudy - 27.1 1014.2 0.0
06/10:00am SSE 13 19 - - - - 10 Partly cloudy - 26.9 1014.3 0.0
06/09:30am SSE 9 15 - - - - 10 Partly cloudy - 27.0 1014.0 0.0
06/09:05am SSE 10 16 - - - - 10 Partly cloudy - 26.6 1013.9 0.0
06/09:00am SSE 11 17 - - - - 10 Cloudy - 26.7 1013.8 50.0
06/08:30am SSE 10 17 - - - - 10 Partly cloudy - 26.4 1013.8 50.0
06/08:00am S 7 11 - - - - 10 Partly cloudy - 26.3 1013.6 50.0
06/07:30am SSE 7 11 - - - - 10 Partly cloudy - 25.7 1013.6 50.0
06/07:00am SSE 6 9 - - - - 10 Partly cloudy - 25.4 1013.3 50.0
06/06:30am S 6 11 - - - - 10 Partly cloudy - 24.8 1013.2 50.0
06/06:00am S 5 7 - - - - 10 Mostly cloudy Rain 24.9 1013.1 50.0
06/05:30am S 5 7 - - - - 10 Partly cloudy - 24.9 1012.8 49.8
06/05:00am SSE 5 6 - - - - 10 Partly cloudy - 24.8 1012.5 49.6
06/04:47am S 4 6 - - - - 8 Partly cloudy - 24.8 1012.4 49.0
06/04:45am S 4 6 - - - - 8 Partly cloudy - 24.9 1012.4 48.8
06/04:33am SE 3 5 - - - - 5 Partly cloudy - 24.8 1012.3 48.0
06/04:30am SE 3 5 - - - - 5 Partly cloudy - 24.8 1012.3 47.8
06/04:00am ESE 9 15 - - - - 2 Partly cloudy - 24.6 1012.0 45.0
06/03:57am ESE 10 15 - - - - 2 Partly cloudy - 24.6 1012.0 44.4
06/03:30am ESE 8 11 - - - - 4 Partly cloudy - 24.8 1011.7 35.2
06/03:29am ESE 8 13 - - - - 4 Partly cloudy - 24.8 1011.7 35.0
06/03:19am SE 7 11 - - - - 2 Partly cloudy - 24.7 1011.6 33.6
06/03:00am SSE 7 11 - - - - 5 Cloudy Rain 24.7 1011.7 26.6
06/02:30am SSE 10 14 - - - - 2 Partly cloudy - 24.6 1011.7 18.6
06/02:00am SW 4 6 - - - - 5 Partly cloudy - 25.3 1011.8 6.6
06/01:30am S 3 5 - - - - 10 Partly cloudy - 25.3 1012.0 5.4
06/01:00am SSE 5 7 - - - - 10 Partly cloudy - 25.4 1012.1 5.4
06/12:44am SSE 5 9 - - - - 10 Partly cloudy - 25.4 1012.3 5.4
06/12:30am SE 6 11 - - - - 4 Partly cloudy - 25.3 1012.3 5.2
06/12:16am SSE 5 9 - - - - 3 Partly cloudy - 25.3 1012.4 3.4
06/12:03am SSE 7 11 - - - - 5 Cloudy - 25.6 1012.5 0.6
06/12:00am SSE 7 11 - - - - 7 Cloudy Rain 25.7 1012.5 0.2
 
Date/Time
EST
Wind Sea
Height
m
Swell Vis
km
Cloud Weather Temp
°C
Press
MSL
hPa
Rain since
9am
mm
Dir  Spd
kts
Gust
kts
Height
m
Period
s
Dir
05/11:30pm S 7 12 - - - - 10 Partly cloudy - 26.3 1012.4 0.0
05/11:00pm S 9 14 - - - - 10 Partly cloudy - 26.5 1012.6 0.0
05/10:30pm SSE 8 13 - - - - 10 Partly cloudy - 26.7 1012.8 0.0
05/10:00pm SSE 7 11 - - - - 10 Cloudy - 26.7 1013.0 0.0
05/09:30pm SE 9 16 - - - - 10 Partly cloudy - 26.6 1012.8 0.0
05/09:00pm SSE 8 13 - - - - 10 Partly cloudy - 26.6 1012.7 0.0
05/08:30pm SSE 10 17 - - - - 10 Partly cloudy - 26.8 1012.5 0.0
05/08:00pm SSE 8 17 - - - - 10 Partly cloudy - 26.8 1012.6 0.0
05/07:30pm SSE 10 15 - - - - 10 - - 26.6 1012.3 0.0
05/07:00pm SSE 9 15 - - - - 10 Partly cloudy - 26.7 1011.7 0.0
05/06:30pm SSE 9 15 - - - - 10 - - 27.0 1011.7 0.0
05/06:00pm SSE 11 16 - - - - 10 - - 27.5 1011.5 0.0

Other formats

Comma delimited format used in spreadsheet applications
http://www.bom.gov.au/fwo/IDQ60701/IDQ60701.95565.axf

JavaScript Object Notation format (JSON) in row-major order
http://www.bom.gov.au/fwo/IDQ60701/IDQ60701.95565.json

Data quality

Most of these data are generated automatically and are frequently updated. Quality checks on data are not normally performed. It is possible for incorrect values to appear. Refer to information at About Latest Weather Observations and please check the disclaimer before using these data.